sensor_id;sensor_type;location;lat;lon;timestamp;P1;durP1;ratioP1;P2;durP2;ratioP2
77105;SDS011;66057;54.718;18.426;2023-06-14T00:00:42;5.85;;;3.20;;
77105;SDS011;66057;54.718;18.426;2023-06-14T00:03:29;5.00;;;2.60;;
77105;SDS011;66057;54.718;18.426;2023-06-14T00:05:57;6.70;;;3.35;;
77105;SDS011;66057;54.718;18.426;2023-06-14T00:08:22;6.63;;;2.60;;
77105;SDS011;66057;54.718;18.426;2023-06-14T00:10:50;4.35;;;2.72;;
77105;SDS011;66057;54.718;18.426;2023-06-14T00:13:15;5.93;;;2.80;;
77105;SDS011;66057;54.718;18.426;2023-06-14T00:15:41;4.82;;;2.55;;
77105;SDS011;66057;54.718;18.426;2023-06-14T00:18:08;6.90;;;2.55;;
77105;SDS011;66057;54.718;18.426;2023-06-14T00:20:36;6.53;;;2.58;;
77105;SDS011;66057;54.718;18.426;2023-06-14T00:23:02;7.18;;;3.08;;
77105;SDS011;66057;54.718;18.426;2023-06-14T00:25:28;5.50;;;3.25;;
77105;SDS011;66057;54.718;18.426;2023-06-14T00:27:54;6.68;;;2.63;;
77105;SDS011;66057;54.718;18.426;2023-06-14T00:30:20;5.32;;;2.67;;
77105;SDS011;66057;54.718;18.426;2023-06-14T00:32:47;6.53;;;2.90;;
77105;SDS011;66057;54.718;18.426;2023-06-14T00:35:13;4.28;;;2.70;;
77105;SDS011;66057;54.718;18.426;2023-06-14T00:37:39;4.20;;;3.10;;
77105;SDS011;66057;54.718;18.426;2023-06-14T00:40:05;5.20;;;3.75;;
77105;SDS011;66057;54.718;18.426;2023-06-14T00:42:32;3.65;;;2.25;;
77105;SDS011;66057;54.718;18.426;2023-06-14T00:44:59;4.47;;;2.75;;
77105;SDS011;66057;54.718;18.426;2023-06-14T00:47:25;4.72;;;2.55;;
77105;SDS011;66057;54.718;18.426;2023-06-14T00:49:52;5.75;;;3.28;;
77105;SDS011;66057;54.718;18.426;2023-06-14T00:52:19;5.00;;;3.28;;
77105;SDS011;66057;54.718;18.426;2023-06-14T00:54:45;6.50;;;3.20;;
77105;SDS011;66057;54.718;18.426;2023-06-14T00:57:12;6.28;;;2.85;;
77105;SDS011;66057;54.718;18.426;2023-06-14T00:59:39;5.20;;;2.80;;
77105;SDS011;66057;54.718;18.426;2023-06-14T01:02:08;4.97;;;2.50;;
77105;SDS011;66057;54.718;18.426;2023-06-14T01:04:34;5.03;;;3.08;;
77105;SDS011;66057;54.718;18.426;2023-06-14T01:07:07;5.57;;;2.90;;
77105;SDS011;66057;54.718;18.426;2023-06-14T01:12:37;5.05;;;2.60;;
77105;SDS011;66057;54.718;18.426;2023-06-14T01:15:09;6.32;;;3.28;;
77105;SDS011;66057;54.718;18.426;2023-06-14T01:17:38;4.47;;;2.30;;
77105;SDS011;66057;54.718;18.426;2023-06-14T01:20:07;6.32;;;2.90;;
77105;SDS011;66057;54.718;18.426;2023-06-14T01:22:35;4.45;;;1.77;;
77105;SDS011;66057;54.718;18.426;2023-06-14T01:25:01;5.35;;;2.53;;
77105;SDS011;66057;54.718;18.426;2023-06-14T01:27:27;11.70;;;3.00;;
77105;SDS011;66057;54.718;18.426;2023-06-14T01:29:57;4.75;;;2.88;;
77105;SDS011;66057;54.718;18.426;2023-06-14T01:32:25;4.30;;;2.60;;
77105;SDS011;66057;54.718;18.426;2023-06-14T01:34:53;5.70;;;2.72;;
77105;SDS011;66057;54.718;18.426;2023-06-14T01:37:19;6.53;;;4.00;;
77105;SDS011;66057;54.718;18.426;2023-06-14T01:39:47;4.40;;;2.95;;
77105;SDS011;66057;54.718;18.426;2023-06-14T01:42:15;3.95;;;2.22;;
77105;SDS011;66057;54.718;18.426;2023-06-14T01:44:41;5.22;;;3.00;;
77105;SDS011;66057;54.718;18.426;2023-06-14T01:47:09;4.57;;;3.42;;
77105;SDS011;66057;54.718;18.426;2023-06-14T01:49:35;5.28;;;3.13;;
77105;SDS011;66057;54.718;18.426;2023-06-14T01:52:01;8.25;;;3.63;;
77105;SDS011;66057;54.718;18.426;2023-06-14T01:54:26;7.47;;;3.13;;
77105;SDS011;66057;54.718;18.426;2023-06-14T01:56:52;4.85;;;3.70;;
77105;SDS011;66057;54.718;18.426;2023-06-14T01:59:18;5.75;;;3.03;;
77105;SDS011;66057;54.718;18.426;2023-06-14T02:01:44;5.40;;;3.35;;
77105;SDS011;66057;54.718;18.426;2023-06-14T02:04:11;5.07;;;3.53;;
77105;SDS011;66057;54.718;18.426;2023-06-14T02:06:37;5.15;;;3.45;;
77105;SDS011;66057;54.718;18.426;2023-06-14T02:09:03;5.72;;;3.53;;
77105;SDS011;66057;54.718;18.426;2023-06-14T02:11:29;6.35;;;3.72;;
77105;SDS011;66057;54.718;18.426;2023-06-14T02:13:55;8.32;;;4.32;;
77105;SDS011;66057;54.718;18.426;2023-06-14T02:16:21;5.95;;;3.65;;
77105;SDS011;66057;54.718;18.426;2023-06-14T02:18:47;5.15;;;2.95;;
77105;SDS011;66057;54.718;18.426;2023-06-14T02:21:13;5.30;;;2.97;;
77105;SDS011;66057;54.718;18.426;2023-06-14T02:23:39;4.30;;;2.65;;
77105;SDS011;66057;54.718;18.426;2023-06-14T02:26:05;7.22;;;4.00;;
77105;SDS011;66057;54.718;18.426;2023-06-14T02:28:31;6.65;;;3.60;;
77105;SDS011;66057;54.718;18.426;2023-06-14T02:30:57;7.60;;;3.30;;
77105;SDS011;66057;54.718;18.426;2023-06-14T02:33:22;6.82;;;3.67;;
77105;SDS011;66057;54.718;18.426;2023-06-14T02:35:49;9.32;;;5.38;;
77105;SDS011;66057;54.718;18.426;2023-06-14T02:38:15;5.35;;;3.50;;
77105;SDS011;66057;54.718;18.426;2023-06-14T02:40:41;7.00;;;3.85;;
77105;SDS011;66057;54.718;18.426;2023-06-14T02:43:08;12.07;;;4.00;;
77105;SDS011;66057;54.718;18.426;2023-06-14T02:45:34;6.90;;;3.78;;
77105;SDS011;66057;54.718;18.426;2023-06-14T02:47:59;8.10;;;3.85;;
77105;SDS011;66057;54.718;18.426;2023-06-14T02:50:25;7.88;;;3.70;;
77105;SDS011;66057;54.718;18.426;2023-06-14T02:52:51;8.00;;;3.90;;
77105;SDS011;66057;54.718;18.426;2023-06-14T02:55:18;8.90;;;4.07;;
77105;SDS011;66057;54.718;18.426;2023-06-14T02:57:43;6.55;;;4.55;;
77105;SDS011;66057;54.718;18.426;2023-06-14T03:00:09;7.05;;;3.38;;
77105;SDS011;66057;54.718;18.426;2023-06-14T03:02:38;5.50;;;3.30;;
77105;SDS011;66057;54.718;18.426;2023-06-14T03:05:04;6.70;;;3.40;;
77105;SDS011;66057;54.718;18.426;2023-06-14T03:07:31;5.75;;;3.25;;
77105;SDS011;66057;54.718;18.426;2023-06-14T03:09:58;5.38;;;3.60;;
77105;SDS011;66057;54.718;18.426;2023-06-14T03:12:23;10.30;;;4.30;;
77105;SDS011;66057;54.718;18.426;2023-06-14T03:14:49;7.78;;;4.63;;
77105;SDS011;66057;54.718;18.426;2023-06-14T03:19:43;11.43;;;4.55;;
77105;SDS011;66057;54.718;18.426;2023-06-14T03:22:08;11.75;;;4.82;;
77105;SDS011;66057;54.718;18.426;2023-06-14T03:24:37;13.05;;;5.47;;
77105;SDS011;66057;54.718;18.426;2023-06-14T03:27:03;7.82;;;4.43;;
77105;SDS011;66057;54.718;18.426;2023-06-14T03:29:29;6.18;;;3.90;;
77105;SDS011;66057;54.718;18.426;2023-06-14T03:32:01;8.38;;;3.03;;
77105;SDS011;66057;54.718;18.426;2023-06-14T03:34:28;8.45;;;3.53;;
77105;SDS011;66057;54.718;18.426;2023-06-14T03:36:54;5.65;;;3.38;;
77105;SDS011;66057;54.718;18.426;2023-06-14T03:39:19;4.68;;;3.10;;
77105;SDS011;66057;54.718;18.426;2023-06-14T03:41:45;7.20;;;3.42;;
77105;SDS011;66057;54.718;18.426;2023-06-14T03:44:14;5.28;;;2.70;;
77105;SDS011;66057;54.718;18.426;2023-06-14T03:46:41;4.07;;;3.17;;
77105;SDS011;66057;54.718;18.426;2023-06-14T03:49:07;4.78;;;3.30;;
77105;SDS011;66057;54.718;18.426;2023-06-14T03:51:33;6.40;;;3.22;;
77105;SDS011;66057;54.718;18.426;2023-06-14T03:54:00;6.55;;;3.38;;
77105;SDS011;66057;54.718;18.426;2023-06-14T03:56:26;4.18;;;2.83;;
77105;SDS011;66057;54.718;18.426;2023-06-14T03:58:52;6.32;;;3.22;;
77105;SDS011;66057;54.718;18.426;2023-06-14T04:01:18;8.25;;;3.75;;
77105;SDS011;66057;54.718;18.426;2023-06-14T04:03:44;5.03;;;2.70;;
77105;SDS011;66057;54.718;18.426;2023-06-14T04:06:09;10.07;;;3.83;;
77105;SDS011;66057;54.718;18.426;2023-06-14T04:08:35;6.55;;;3.45;;
77105;SDS011;66057;54.718;18.426;2023-06-14T04:11:01;8.48;;;4.60;;
77105;SDS011;66057;54.718;18.426;2023-06-14T04:13:27;11.07;;;4.10;;
77105;SDS011;66057;54.718;18.426;2023-06-14T04:15:53;4.97;;;3.40;;
77105;SDS011;66057;54.718;18.426;2023-06-14T04:18:19;6.80;;;3.55;;
77105;SDS011;66057;54.718;18.426;2023-06-14T04:20:45;5.40;;;3.13;;
77105;SDS011;66057;54.718;18.426;2023-06-14T04:23:13;13.52;;;5.93;;
77105;SDS011;66057;54.718;18.426;2023-06-14T04:25:40;17.27;;;6.00;;
77105;SDS011;66057;54.718;18.426;2023-06-14T04:28:06;13.52;;;5.75;;
77105;SDS011;66057;54.718;18.426;2023-06-14T04:30:34;13.05;;;4.97;;
77105;SDS011;66057;54.718;18.426;2023-06-14T04:33:01;13.63;;;5.85;;
77105;SDS011;66057;54.718;18.426;2023-06-14T04:35:31;7.22;;;4.05;;
77105;SDS011;66057;54.718;18.426;2023-06-14T04:38:01;7.53;;;3.35;;
77105;SDS011;66057;54.718;18.426;2023-06-14T04:40:30;9.05;;;4.00;;
77105;SDS011;66057;54.718;18.426;2023-06-14T04:42:57;5.00;;;3.42;;
77105;SDS011;66057;54.718;18.426;2023-06-14T04:45:24;6.72;;;3.75;;
77105;SDS011;66057;54.718;18.426;2023-06-14T04:47:58;8.20;;;3.63;;
77105;SDS011;66057;54.718;18.426;2023-06-14T04:50:24;8.15;;;4.50;;
77105;SDS011;66057;54.718;18.426;2023-06-14T04:52:50;6.82;;;3.53;;
77105;SDS011;66057;54.718;18.426;2023-06-14T04:55:16;6.13;;;3.92;;
77105;SDS011;66057;54.718;18.426;2023-06-14T04:57:44;9.05;;;4.43;;
77105;SDS011;66057;54.718;18.426;2023-06-14T05:00:10;5.03;;;3.28;;
77105;SDS011;66057;54.718;18.426;2023-06-14T05:02:37;9.43;;;4.43;;
77105;SDS011;66057;54.718;18.426;2023-06-14T05:05:03;13.00;;;5.32;;
77105;SDS011;66057;54.718;18.426;2023-06-14T05:07:34;7.78;;;3.70;;
77105;SDS011;66057;54.718;18.426;2023-06-14T05:10:00;5.95;;;4.03;;
77105;SDS011;66057;54.718;18.426;2023-06-14T05:12:26;8.38;;;4.03;;
77105;SDS011;66057;54.718;18.426;2023-06-14T05:14:53;7.95;;;3.88;;
77105;SDS011;66057;54.718;18.426;2023-06-14T05:17:19;6.35;;;3.30;;
77105;SDS011;66057;54.718;18.426;2023-06-14T05:19:45;4.75;;;3.05;;
77105;SDS011;66057;54.718;18.426;2023-06-14T05:22:11;3.50;;;2.38;;
77105;SDS011;66057;54.718;18.426;2023-06-14T05:24:38;4.35;;;1.90;;
77105;SDS011;66057;54.718;18.426;2023-06-14T05:27:04;5.85;;;2.45;;
77105;SDS011;66057;54.718;18.426;2023-06-14T05:29:30;9.25;;;2.97;;
77105;SDS011;66057;54.718;18.426;2023-06-14T05:31:56;5.28;;;2.60;;
77105;SDS011;66057;54.718;18.426;2023-06-14T05:34:22;5.80;;;2.03;;
77105;SDS011;66057;54.718;18.426;2023-06-14T05:36:48;3.90;;;1.95;;
77105;SDS011;66057;54.718;18.426;2023-06-14T05:39:13;4.70;;;2.20;;
77105;SDS011;66057;54.718;18.426;2023-06-14T05:41:39;5.25;;;2.50;;
77105;SDS011;66057;54.718;18.426;2023-06-14T05:44:05;3.58;;;2.22;;
77105;SDS011;66057;54.718;18.426;2023-06-14T05:46:30;2.95;;;2.10;;
77105;SDS011;66057;54.718;18.426;2023-06-14T05:48:56;4.63;;;2.35;;
77105;SDS011;66057;54.718;18.426;2023-06-14T05:51:22;4.40;;;2.25;;
77105;SDS011;66057;54.718;18.426;2023-06-14T05:53:50;4.55;;;2.47;;
77105;SDS011;66057;54.718;18.426;2023-06-14T05:56:16;3.90;;;2.15;;
77105;SDS011;66057;54.718;18.426;2023-06-14T05:58:45;6.30;;;2.35;;
77105;SDS011;66057;54.718;18.426;2023-06-14T06:01:13;4.85;;;1.73;;
77105;SDS011;66057;54.718;18.426;2023-06-14T06:03:38;5.38;;;2.38;;
77105;SDS011;66057;54.718;18.426;2023-06-14T06:06:04;3.50;;;2.20;;
77105;SDS011;66057;54.718;18.426;2023-06-14T06:08:30;3.65;;;2.13;;
77105;SDS011;66057;54.718;18.426;2023-06-14T06:10:56;6.47;;;3.00;;
77105;SDS011;66057;54.718;18.426;2023-06-14T06:13:22;7.38;;;2.42;;
77105;SDS011;66057;54.718;18.426;2023-06-14T06:15:48;6.18;;;2.63;;
77105;SDS011;66057;54.718;18.426;2023-06-14T06:18:14;6.43;;;2.72;;
77105;SDS011;66057;54.718;18.426;2023-06-14T06:20:40;18.45;;;4.22;;
77105;SDS011;66057;54.718;18.426;2023-06-14T06:23:05;4.75;;;2.50;;
77105;SDS011;66057;54.718;18.426;2023-06-14T06:25:31;6.13;;;3.15;;
77105;SDS011;66057;54.718;18.426;2023-06-14T06:27:57;6.22;;;2.80;;
77105;SDS011;66057;54.718;18.426;2023-06-14T06:30:22;4.00;;;2.50;;
77105;SDS011;66057;54.718;18.426;2023-06-14T06:32:48;5.35;;;2.80;;
77105;SDS011;66057;54.718;18.426;2023-06-14T06:35:14;3.88;;;2.65;;
77105;SDS011;66057;54.718;18.426;2023-06-14T06:37:41;6.65;;;2.42;;
77105;SDS011;66057;54.718;18.426;2023-06-14T06:40:07;4.07;;;2.05;;
77105;SDS011;66057;54.718;18.426;2023-06-14T06:42:34;3.53;;;2.33;;
77105;SDS011;66057;54.718;18.426;2023-06-14T06:45:00;3.80;;;1.98;;
77105;SDS011;66057;54.718;18.426;2023-06-14T06:47:26;6.10;;;2.50;;
77105;SDS011;66057;54.718;18.426;2023-06-14T06:49:52;4.53;;;2.50;;
77105;SDS011;66057;54.718;18.426;2023-06-14T06:52:17;3.63;;;2.20;;
77105;SDS011;66057;54.718;18.426;2023-06-14T06:57:10;6.07;;;2.30;;
77105;SDS011;66057;54.718;18.426;2023-06-14T06:59:36;5.22;;;2.67;;
77105;SDS011;66057;54.718;18.426;2023-06-14T07:02:02;4.38;;;2.22;;
77105;SDS011;66057;54.718;18.426;2023-06-14T07:04:28;7.18;;;2.67;;
77105;SDS011;66057;54.718;18.426;2023-06-14T07:06:55;4.30;;;2.45;;
77105;SDS011;66057;54.718;18.426;2023-06-14T07:09:22;7.20;;;2.70;;
77105;SDS011;66057;54.718;18.426;2023-06-14T07:11:48;7.18;;;2.05;;
77105;SDS011;66057;54.718;18.426;2023-06-14T07:14:13;3.58;;;2.47;;
77105;SDS011;66057;54.718;18.426;2023-06-14T07:16:39;9.75;;;2.63;;
77105;SDS011;66057;54.718;18.426;2023-06-14T07:19:06;5.32;;;2.95;;
77105;SDS011;66057;54.718;18.426;2023-06-14T07:21:32;4.43;;;3.08;;
77105;SDS011;66057;54.718;18.426;2023-06-14T07:23:58;4.28;;;2.30;;
77105;SDS011;66057;54.718;18.426;2023-06-14T07:26:24;3.97;;;2.45;;
77105;SDS011;66057;54.718;18.426;2023-06-14T07:28:50;4.72;;;2.97;;
77105;SDS011;66057;54.718;18.426;2023-06-14T07:31:17;4.72;;;2.10;;
77105;SDS011;66057;54.718;18.426;2023-06-14T07:33:44;5.18;;;2.78;;
77105;SDS011;66057;54.718;18.426;2023-06-14T07:36:10;4.20;;;2.72;;
77105;SDS011;66057;54.718;18.426;2023-06-14T07:38:36;4.15;;;2.35;;
77105;SDS011;66057;54.718;18.426;2023-06-14T07:41:02;6.47;;;2.58;;
77105;SDS011;66057;54.718;18.426;2023-06-14T07:43:28;4.32;;;2.00;;
77105;SDS011;66057;54.718;18.426;2023-06-14T07:45:54;5.40;;;2.55;;
77105;SDS011;66057;54.718;18.426;2023-06-14T07:50:46;4.22;;;2.50;;
77105;SDS011;66057;54.718;18.426;2023-06-14T07:53:12;6.10;;;2.30;;
77105;SDS011;66057;54.718;18.426;2023-06-14T07:55:37;6.13;;;2.67;;
77105;SDS011;66057;54.718;18.426;2023-06-14T07:58:04;5.43;;;2.53;;
77105;SDS011;66057;54.718;18.426;2023-06-14T08:00:30;5.40;;;2.40;;
77105;SDS011;66057;54.718;18.426;2023-06-14T08:02:56;6.40;;;2.90;;
77105;SDS011;66057;54.718;18.426;2023-06-14T08:05:24;5.45;;;2.85;;
77105;SDS011;66057;54.718;18.426;2023-06-14T08:07:53;4.53;;;2.55;;
77105;SDS011;66057;54.718;18.426;2023-06-14T08:10:20;3.80;;;2.50;;
77105;SDS011;66057;54.718;18.426;2023-06-14T08:12:46;4.60;;;2.42;;
77105;SDS011;66057;54.718;18.426;2023-06-14T08:15:12;5.35;;;2.72;;
77105;SDS011;66057;54.718;18.426;2023-06-14T08:17:37;3.70;;;2.42;;
77105;SDS011;66057;54.718;18.426;2023-06-14T08:20:03;3.55;;;2.80;;
77105;SDS011;66057;54.718;18.426;2023-06-14T08:22:33;5.95;;;2.88;;
77105;SDS011;66057;54.718;18.426;2023-06-14T08:25:00;6.28;;;2.78;;
77105;SDS011;66057;54.718;18.426;2023-06-14T08:27:26;3.53;;;2.65;;
77105;SDS011;66057;54.718;18.426;2023-06-14T08:29:52;5.93;;;2.55;;
77105;SDS011;66057;54.718;18.426;2023-06-14T08:32:19;9.23;;;3.13;;
77105;SDS011;66057;54.718;18.426;2023-06-14T08:37:10;6.03;;;2.75;;
77105;SDS011;66057;54.718;18.426;2023-06-14T08:39:36;8.77;;;3.22;;
77105;SDS011;66057;54.718;18.426;2023-06-14T08:42:02;4.15;;;3.40;;
77105;SDS011;66057;54.718;18.426;2023-06-14T08:44:29;8.15;;;2.95;;
77105;SDS011;66057;54.718;18.426;2023-06-14T08:46:56;7.30;;;2.70;;
77105;SDS011;66057;54.718;18.426;2023-06-14T08:49:24;5.20;;;3.05;;
77105;SDS011;66057;54.718;18.426;2023-06-14T08:51:57;6.35;;;3.38;;
77105;SDS011;66057;54.718;18.426;2023-06-14T08:54:27;5.53;;;2.45;;
77105;SDS011;66057;54.718;18.426;2023-06-14T08:56:58;9.70;;;3.55;;
77105;SDS011;66057;54.718;18.426;2023-06-14T08:59:24;4.40;;;2.92;;
77105;SDS011;66057;54.718;18.426;2023-06-14T09:01:52;3.92;;;3.03;;
77105;SDS011;66057;54.718;18.426;2023-06-14T09:04:22;5.13;;;3.20;;
77105;SDS011;66057;54.718;18.426;2023-06-14T09:06:49;6.38;;;2.95;;
77105;SDS011;66057;54.718;18.426;2023-06-14T09:09:19;5.88;;;2.53;;
77105;SDS011;66057;54.718;18.426;2023-06-14T09:11:49;4.88;;;3.13;;
77105;SDS011;66057;54.718;18.426;2023-06-14T09:14:18;8.18;;;2.65;;
77105;SDS011;66057;54.718;18.426;2023-06-14T09:16:45;7.43;;;3.63;;
77105;SDS011;66057;54.718;18.426;2023-06-14T09:19:13;5.53;;;3.55;;
77105;SDS011;66057;54.718;18.426;2023-06-14T09:21:47;10.25;;;3.17;;
77105;SDS011;66057;54.718;18.426;2023-06-14T09:24:13;5.93;;;2.92;;
77105;SDS011;66057;54.718;18.426;2023-06-14T09:26:39;5.53;;;3.15;;
77105;SDS011;66057;54.718;18.426;2023-06-14T09:29:06;7.47;;;3.15;;
77105;SDS011;66057;54.718;18.426;2023-06-14T09:31:32;8.73;;;2.92;;
77105;SDS011;66057;54.718;18.426;2023-06-14T09:33:58;5.78;;;2.55;;
77105;SDS011;66057;54.718;18.426;2023-06-14T09:36:25;3.50;;;2.65;;
77105;SDS011;66057;54.718;18.426;2023-06-14T09:38:52;5.72;;;2.35;;
77105;SDS011;66057;54.718;18.426;2023-06-14T09:41:39;4.68;;;2.40;;
77105;SDS011;66057;54.718;18.426;2023-06-14T09:44:06;6.63;;;3.05;;
77105;SDS011;66057;54.718;18.426;2023-06-14T09:46:34;7.78;;;3.17;;
77105;SDS011;66057;54.718;18.426;2023-06-14T09:49:01;5.28;;;2.22;;
77105;SDS011;66057;54.718;18.426;2023-06-14T09:51:28;6.28;;;3.17;;
77105;SDS011;66057;54.718;18.426;2023-06-14T09:54:01;4.95;;;2.83;;
77105;SDS011;66057;54.718;18.426;2023-06-14T09:56:40;6.10;;;2.88;;
77105;SDS011;66057;54.718;18.426;2023-06-14T09:59:09;5.78;;;2.60;;
77105;SDS011;66057;54.718;18.426;2023-06-14T10:01:47;3.70;;;2.40;;
77105;SDS011;66057;54.718;18.426;2023-06-14T10:04:14;3.58;;;2.60;;
77105;SDS011;66057;54.718;18.426;2023-06-14T10:06:45;4.13;;;2.90;;
77105;SDS011;66057;54.718;18.426;2023-06-14T10:09:11;9.57;;;3.47;;
77105;SDS011;66057;54.718;18.426;2023-06-14T10:11:38;5.45;;;2.85;;
77105;SDS011;66057;54.718;18.426;2023-06-14T10:14:09;5.93;;;3.17;;
77105;SDS011;66057;54.718;18.426;2023-06-14T10:16:38;4.32;;;2.45;;
77105;SDS011;66057;54.718;18.426;2023-06-14T10:22:33;4.82;;;2.65;;
77105;SDS011;66057;54.718;18.426;2023-06-14T10:25:06;6.32;;;2.83;;
77105;SDS011;66057;54.718;18.426;2023-06-14T10:27:37;8.45;;;2.17;;
77105;SDS011;66057;54.718;18.426;2023-06-14T10:32:31;4.65;;;2.65;;
77105;SDS011;66057;54.718;18.426;2023-06-14T10:34:58;6.05;;;2.75;;
77105;SDS011;66057;54.718;18.426;2023-06-14T10:37:25;4.22;;;2.22;;
77105;SDS011;66057;54.718;18.426;2023-06-14T10:39:51;3.70;;;2.80;;
77105;SDS011;66057;54.718;18.426;2023-06-14T10:42:18;5.72;;;2.70;;
77105;SDS011;66057;54.718;18.426;2023-06-14T10:47:20;5.55;;;3.08;;
77105;SDS011;66057;54.718;18.426;2023-06-14T10:49:51;4.60;;;2.47;;
77105;SDS011;66057;54.718;18.426;2023-06-14T10:52:22;4.55;;;2.28;;
77105;SDS011;66057;54.718;18.426;2023-06-14T10:57:35;6.57;;;2.80;;
77105;SDS011;66057;54.718;18.426;2023-06-14T11:00:02;3.25;;;2.50;;
77105;SDS011;66057;54.718;18.426;2023-06-14T11:06:01;4.82;;;2.40;;
77105;SDS011;66057;54.718;18.426;2023-06-14T11:08:40;5.70;;;2.40;;
77105;SDS011;66057;54.718;18.426;2023-06-14T11:11:32;4.50;;;2.50;;
77105;SDS011;66057;54.718;18.426;2023-06-14T11:14:01;5.05;;;2.83;;
77105;SDS011;66057;54.718;18.426;2023-06-14T11:16:28;3.47;;;2.58;;
77105;SDS011;66057;54.718;18.426;2023-06-14T11:18:54;4.28;;;2.55;;
77105;SDS011;66057;54.718;18.426;2023-06-14T11:21:20;3.53;;;2.40;;
77105;SDS011;66057;54.718;18.426;2023-06-14T11:23:52;4.80;;;2.70;;
77105;SDS011;66057;54.718;18.426;2023-06-14T11:26:28;6.50;;;2.20;;
77105;SDS011;66057;54.718;18.426;2023-06-14T11:28:55;6.05;;;3.17;;
77105;SDS011;66057;54.718;18.426;2023-06-14T11:31:22;7.35;;;3.03;;
77105;SDS011;66057;54.718;18.426;2023-06-14T11:33:55;4.10;;;2.20;;
77105;SDS011;66057;54.718;18.426;2023-06-14T11:36:22;7.13;;;2.42;;
77105;SDS011;66057;54.718;18.426;2023-06-14T11:38:49;5.30;;;2.17;;
77105;SDS011;66057;54.718;18.426;2023-06-14T11:41:15;3.95;;;2.15;;
77105;SDS011;66057;54.718;18.426;2023-06-14T11:43:41;7.43;;;2.80;;
77105;SDS011;66057;54.718;18.426;2023-06-14T11:46:13;8.02;;;2.80;;
77105;SDS011;66057;54.718;18.426;2023-06-14T11:48:43;4.05;;;2.15;;
77105;SDS011;66057;54.718;18.426;2023-06-14T11:51:09;8.05;;;2.75;;
77105;SDS011;66057;54.718;18.426;2023-06-14T11:56:00;7.25;;;2.90;;
77105;SDS011;66057;54.718;18.426;2023-06-14T12:00:54;5.15;;;2.40;;
77105;SDS011;66057;54.718;18.426;2023-06-14T12:03:23;4.85;;;2.08;;
77105;SDS011;66057;54.718;18.426;2023-06-14T12:06:01;4.43;;;2.60;;
77105;SDS011;66057;54.718;18.426;2023-06-14T12:08:37;3.42;;;2.50;;
77105;SDS011;66057;54.718;18.426;2023-06-14T12:11:07;5.32;;;2.53;;
77105;SDS011;66057;54.718;18.426;2023-06-14T12:13:40;4.07;;;2.58;;
77105;SDS011;66057;54.718;18.426;2023-06-14T12:16:10;9.48;;;3.25;;
77105;SDS011;66057;54.718;18.426;2023-06-14T12:18:37;6.20;;;2.80;;
77105;SDS011;66057;54.718;18.426;2023-06-14T12:21:07;4.20;;;2.92;;
77105;SDS011;66057;54.718;18.426;2023-06-14T12:23:38;7.57;;;2.65;;
77105;SDS011;66057;54.718;18.426;2023-06-14T12:26:18;5.80;;;2.50;;
77105;SDS011;66057;54.718;18.426;2023-06-14T12:28:45;3.35;;;2.28;;
77105;SDS011;66057;54.718;18.426;2023-06-14T12:31:12;4.80;;;3.20;;
77105;SDS011;66057;54.718;18.426;2023-06-14T12:33:39;7.75;;;3.08;;
77105;SDS011;66057;54.718;18.426;2023-06-14T12:36:07;4.78;;;3.13;;
77105;SDS011;66057;54.718;18.426;2023-06-14T12:38:34;6.10;;;2.90;;
77105;SDS011;66057;54.718;18.426;2023-06-14T12:41:00;4.47;;;2.72;;
77105;SDS011;66057;54.718;18.426;2023-06-14T12:43:27;3.05;;;2.10;;
77105;SDS011;66057;54.718;18.426;2023-06-14T12:45:52;5.25;;;2.17;;
77105;SDS011;66057;54.718;18.426;2023-06-14T12:48:19;6.55;;;2.40;;
77105;SDS011;66057;54.718;18.426;2023-06-14T12:53:11;4.65;;;2.42;;
77105;SDS011;66057;54.718;18.426;2023-06-14T12:58:03;3.83;;;2.10;;
77105;SDS011;66057;54.718;18.426;2023-06-14T13:02:56;5.18;;;2.60;;
77105;SDS011;66057;54.718;18.426;2023-06-14T13:05:22;5.63;;;2.33;;
77105;SDS011;66057;54.718;18.426;2023-06-14T13:07:48;5.80;;;2.22;;
77105;SDS011;66057;54.718;18.426;2023-06-14T13:12:40;2.88;;;2.03;;
77105;SDS011;66057;54.718;18.426;2023-06-14T13:17:33;7.32;;;2.33;;
77105;SDS011;66057;54.718;18.426;2023-06-14T13:20:06;7.38;;;2.53;;
77105;SDS011;66057;54.718;18.426;2023-06-14T13:22:34;3.63;;;2.03;;
77105;SDS011;66057;54.718;18.426;2023-06-14T13:25:00;4.38;;;2.38;;
77105;SDS011;66057;54.718;18.426;2023-06-14T13:27:26;4.82;;;2.58;;
77105;SDS011;66057;54.718;18.426;2023-06-14T13:32:20;5.82;;;2.45;;
77105;SDS011;66057;54.718;18.426;2023-06-14T13:34:47;4.85;;;2.50;;
77105;SDS011;66057;54.718;18.426;2023-06-14T13:37:13;2.38;;;2.08;;
77105;SDS011;66057;54.718;18.426;2023-06-14T13:39:38;5.80;;;2.38;;
77105;SDS011;66057;54.718;18.426;2023-06-14T13:42:05;6.40;;;2.17;;
77105;SDS011;66057;54.718;18.426;2023-06-14T13:44:30;4.22;;;2.22;;
77105;SDS011;66057;54.718;18.426;2023-06-14T13:46:56;5.13;;;2.50;;
77105;SDS011;66057;54.718;18.426;2023-06-14T13:49:22;3.10;;;1.83;;
77105;SDS011;66057;54.718;18.426;2023-06-14T13:54:14;5.57;;;2.45;;
77105;SDS011;66057;54.718;18.426;2023-06-14T13:56:41;6.32;;;2.17;;
77105;SDS011;66057;54.718;18.426;2023-06-14T13:59:07;4.97;;;2.30;;
77105;SDS011;66057;54.718;18.426;2023-06-14T14:03:59;6.45;;;2.05;;
77105;SDS011;66057;54.718;18.426;2023-06-14T14:06:26;5.63;;;2.10;;
77105;SDS011;66057;54.718;18.426;2023-06-14T14:11:18;6.68;;;3.00;;
77105;SDS011;66057;54.718;18.426;2023-06-14T14:13:45;4.22;;;2.20;;
77105;SDS011;66057;54.718;18.426;2023-06-14T14:16:12;5.38;;;3.05;;
77105;SDS011;66057;54.718;18.426;2023-06-14T14:18:39;3.03;;;2.00;;
77105;SDS011;66057;54.718;18.426;2023-06-14T14:21:05;4.35;;;2.40;;
77105;SDS011;66057;54.718;18.426;2023-06-14T14:23:32;4.53;;;2.13;;
77105;SDS011;66057;54.718;18.426;2023-06-14T14:25:58;4.25;;;2.13;;
77105;SDS011;66057;54.718;18.426;2023-06-14T14:28:26;4.00;;;2.13;;
77105;SDS011;66057;54.718;18.426;2023-06-14T14:30:52;6.10;;;2.10;;
77105;SDS011;66057;54.718;18.426;2023-06-14T14:33:18;4.20;;;1.90;;
77105;SDS011;66057;54.718;18.426;2023-06-14T14:35:45;2.38;;;2.00;;
77105;SDS011;66057;54.718;18.426;2023-06-14T14:38:12;3.15;;;1.88;;
77105;SDS011;66057;54.718;18.426;2023-06-14T14:40:39;4.13;;;2.35;;
77105;SDS011;66057;54.718;18.426;2023-06-14T14:43:05;4.47;;;2.70;;
77105;SDS011;66057;54.718;18.426;2023-06-14T14:45:32;3.65;;;2.17;;
77105;SDS011;66057;54.718;18.426;2023-06-14T14:50:27;4.15;;;2.33;;
77105;SDS011;66057;54.718;18.426;2023-06-14T14:52:53;4.03;;;1.75;;
77105;SDS011;66057;54.718;18.426;2023-06-14T14:55:19;7.55;;;2.00;;
77105;SDS011;66057;54.718;18.426;2023-06-14T14:57:45;4.97;;;1.70;;
77105;SDS011;66057;54.718;18.426;2023-06-14T15:00:12;4.32;;;2.17;;
77105;SDS011;66057;54.718;18.426;2023-06-14T15:02:39;4.07;;;2.60;;
77105;SDS011;66057;54.718;18.426;2023-06-14T15:05:05;2.90;;;2.00;;
77105;SDS011;66057;54.718;18.426;2023-06-14T15:09:57;3.92;;;2.30;;
77105;SDS011;66057;54.718;18.426;2023-06-14T15:12:23;3.63;;;2.40;;
77105;SDS011;66057;54.718;18.426;2023-06-14T15:14:52;4.85;;;2.55;;
77105;SDS011;66057;54.718;18.426;2023-06-14T15:17:19;4.45;;;2.85;;
77105;SDS011;66057;54.718;18.426;2023-06-14T15:19:46;3.78;;;2.72;;
77105;SDS011;66057;54.718;18.426;2023-06-14T15:22:13;3.70;;;2.60;;
77105;SDS011;66057;54.718;18.426;2023-06-14T15:24:41;5.35;;;2.72;;
77105;SDS011;66057;54.718;18.426;2023-06-14T15:27:07;6.43;;;2.60;;
77105;SDS011;66057;54.718;18.426;2023-06-14T15:32:00;4.53;;;2.70;;
77105;SDS011;66057;54.718;18.426;2023-06-14T15:34:26;4.30;;;2.70;;